sensor_id;sensor_type;location;lat;lon;timestamp;temperature;humidity
73576;DHT22;61859;49.204;8.140;2024-01-25T00:00:41;10.20;87.80
73576;DHT22;61859;49.204;8.140;2024-01-25T00:03:06;10.20;88.00
73576;DHT22;61859;49.204;8.140;2024-01-25T00:05:32;10.20;88.10
73576;DHT22;61859;49.204;8.140;2024-01-25T00:07:58;10.20;88.00
73576;DHT22;61859;49.204;8.140;2024-01-25T00:10:23;10.20;88.00
73576;DHT22;61859;49.204;8.140;2024-01-25T00:12:49;10.20;88.00
73576;DHT22;61859;49.204;8.140;2024-01-25T00:15:14;10.20;88.00
73576;DHT22;61859;49.204;8.140;2024-01-25T00:17:41;10.20;87.70
73576;DHT22;61859;49.204;8.140;2024-01-25T00:20:09;10.20;87.70
73576;DHT22;61859;49.204;8.140;2024-01-25T00:22:35;10.30;87.90
73576;DHT22;61859;49.204;8.140;2024-01-25T00:25:00;10.30;88.00
73576;DHT22;61859;49.204;8.140;2024-01-25T00:27:26;10.20;87.90
73576;DHT22;61859;49.204;8.140;2024-01-25T00:29:52;10.20;87.70
73576;DHT22;61859;49.204;8.140;2024-01-25T00:32:17;10.30;87.70
73576;DHT22;61859;49.204;8.140;2024-01-25T00:34:43;10.20;87.60
73576;DHT22;61859;49.204;8.140;2024-01-25T00:37:09;10.20;87.80
73576;DHT22;61859;49.204;8.140;2024-01-25T00:39:35;10.20;87.90
73576;DHT22;61859;49.204;8.140;2024-01-25T00:42:04;10.20;87.70
73576;DHT22;61859;49.204;8.140;2024-01-25T00:44:33;10.20;87.80
73576;DHT22;61859;49.204;8.140;2024-01-25T00:46:59;10.20;87.90
73576;DHT22;61859;49.204;8.140;2024-01-25T00:49:25;10.20;87.90
73576;DHT22;61859;49.204;8.140;2024-01-25T00:51:58;10.20;87.80
73576;DHT22;61859;49.204;8.140;2024-01-25T00:54:24;10.20;87.80
73576;DHT22;61859;49.204;8.140;2024-01-25T00:56:50;10.20;88.10
73576;DHT22;61859;49.204;8.140;2024-01-25T00:59:18;10.20;87.80
73576;DHT22;61859;49.204;8.140;2024-01-25T01:01:46;10.00;87.90
73576;DHT22;61859;49.204;8.140;2024-01-25T01:04:13;10.10;87.90
73576;DHT22;61859;49.204;8.140;2024-01-25T01:06:38;10.20;87.80
73576;DHT22;61859;49.204;8.140;2024-01-25T01:09:04;10.10;87.90
73576;DHT22;61859;49.204;8.140;2024-01-25T01:11:30;10.10;87.60
73576;DHT22;61859;49.204;8.140;2024-01-25T01:13:55;10.10;87.60
73576;DHT22;61859;49.204;8.140;2024-01-25T01:16:21;10.10;87.60
73576;DHT22;61859;49.204;8.140;2024-01-25T01:18:47;10.20;87.60
73576;DHT22;61859;49.204;8.140;2024-01-25T01:21:12;10.20;87.20
73576;DHT22;61859;49.204;8.140;2024-01-25T01:23:38;10.10;87.00
73576;DHT22;61859;49.204;8.140;2024-01-25T01:26:07;10.10;87.20
73576;DHT22;61859;49.204;8.140;2024-01-25T01:28:32;10.10;87.30
73576;DHT22;61859;49.204;8.140;2024-01-25T01:30:58;10.10;87.30
73576;DHT22;61859;49.204;8.140;2024-01-25T01:33:23;10.10;87.40
73576;DHT22;61859;49.204;8.140;2024-01-25T01:35:49;10.10;87.50
73576;DHT22;61859;49.204;8.140;2024-01-25T01:38:15;10.00;87.50
73576;DHT22;61859;49.204;8.140;2024-01-25T01:40:40;10.00;87.50
73576;DHT22;61859;49.204;8.140;2024-01-25T01:43:06;10.10;87.20
73576;DHT22;61859;49.204;8.140;2024-01-25T01:45:31;10.10;87.10
73576;DHT22;61859;49.204;8.140;2024-01-25T01:47:57;10.10;87.40
73576;DHT22;61859;49.204;8.140;2024-01-25T01:50:24;10.00;87.30
73576;DHT22;61859;49.204;8.140;2024-01-25T01:52:50;10.00;87.40
73576;DHT22;61859;49.204;8.140;2024-01-25T01:55:16;10.00;87.30
73576;DHT22;61859;49.204;8.140;2024-01-25T01:57:42;10.00;87.30
73576;DHT22;61859;49.204;8.140;2024-01-25T02:00:09;10.00;87.00
73576;DHT22;61859;49.204;8.140;2024-01-25T02:02:35;9.90;87.20
73576;DHT22;61859;49.204;8.140;2024-01-25T02:05:01;9.90;87.30
73576;DHT22;61859;49.204;8.140;2024-01-25T02:07:27;9.90;87.40
73576;DHT22;61859;49.204;8.140;2024-01-25T02:09:53;9.90;87.00
73576;DHT22;61859;49.204;8.140;2024-01-25T02:12:18;9.90;87.30
73576;DHT22;61859;49.204;8.140;2024-01-25T02:14:44;9.90;87.10
73576;DHT22;61859;49.204;8.140;2024-01-25T02:17:10;9.80;87.20
73576;DHT22;61859;49.204;8.140;2024-01-25T02:19:36;9.90;87.50
73576;DHT22;61859;49.204;8.140;2024-01-25T02:22:04;9.70;87.70
73576;DHT22;61859;49.204;8.140;2024-01-25T02:24:30;9.70;88.00
73576;DHT22;61859;49.204;8.140;2024-01-25T02:26:55;9.60;87.70
73576;DHT22;61859;49.204;8.140;2024-01-25T02:29:21;9.60;88.00
73576;DHT22;61859;49.204;8.140;2024-01-25T02:31:47;9.70;88.20
73576;DHT22;61859;49.204;8.140;2024-01-25T02:34:12;9.70;88.10
73576;DHT22;61859;49.204;8.140;2024-01-25T02:36:38;9.60;88.30
73576;DHT22;61859;49.204;8.140;2024-01-25T02:39:03;9.70;88.30
73576;DHT22;61859;49.204;8.140;2024-01-25T02:41:31;9.70;88.40
73576;DHT22;61859;49.204;8.140;2024-01-25T02:43:56;9.70;88.30
73576;DHT22;61859;49.204;8.140;2024-01-25T02:46:22;9.70;88.10
73576;DHT22;61859;49.204;8.140;2024-01-25T02:48:48;9.80;88.20
73576;DHT22;61859;49.204;8.140;2024-01-25T02:51:13;9.80;88.10
73576;DHT22;61859;49.204;8.140;2024-01-25T02:53:40;9.80;88.10
73576;DHT22;61859;49.204;8.140;2024-01-25T02:56:06;9.80;88.10
73576;DHT22;61859;49.204;8.140;2024-01-25T02:58:32;9.70;88.10
73576;DHT22;61859;49.204;8.140;2024-01-25T03:00:58;9.80;88.20
73576;DHT22;61859;49.204;8.140;2024-01-25T03:03:23;9.70;88.30
73576;DHT22;61859;49.204;8.140;2024-01-25T03:05:51;9.70;88.20
73576;DHT22;61859;49.204;8.140;2024-01-25T03:08:17;9.70;88.40
73576;DHT22;61859;49.204;8.140;2024-01-25T03:10:42;9.60;88.20
73576;DHT22;61859;49.204;8.140;2024-01-25T03:13:08;9.50;88.20
73576;DHT22;61859;49.204;8.140;2024-01-25T03:15:33;9.50;88.50
73576;DHT22;61859;49.204;8.140;2024-01-25T03:17:59;9.50;88.70
73576;DHT22;61859;49.204;8.140;2024-01-25T03:20:24;9.50;88.70
73576;DHT22;61859;49.204;8.140;2024-01-25T03:22:50;9.40;88.80
73576;DHT22;61859;49.204;8.140;2024-01-25T03:25:15;9.50;88.80
73576;DHT22;61859;49.204;8.140;2024-01-25T03:27:41;9.50;88.70
73576;DHT22;61859;49.204;8.140;2024-01-25T03:30:07;9.50;88.60
73576;DHT22;61859;49.204;8.140;2024-01-25T03:32:33;9.50;88.70
73576;DHT22;61859;49.204;8.140;2024-01-25T03:34:59;9.50;88.70
73576;DHT22;61859;49.204;8.140;2024-01-25T03:37:25;9.50;88.80
73576;DHT22;61859;49.204;8.140;2024-01-25T03:39:50;9.50;88.60
73576;DHT22;61859;49.204;8.140;2024-01-25T03:42:16;9.50;88.70
73576;DHT22;61859;49.204;8.140;2024-01-25T03:44:41;9.50;88.50
73576;DHT22;61859;49.204;8.140;2024-01-25T03:47:08;9.60;88.20
73576;DHT22;61859;49.204;8.140;2024-01-25T03:49:34;9.60;88.50
73576;DHT22;61859;49.204;8.140;2024-01-25T03:51:59;9.50;88.50
73576;DHT22;61859;49.204;8.140;2024-01-25T03:54:25;9.50;88.20
73576;DHT22;61859;49.204;8.140;2024-01-25T03:56:51;9.50;88.30
73576;DHT22;61859;49.204;8.140;2024-01-25T03:59:16;9.50;88.40
73576;DHT22;61859;49.204;8.140;2024-01-25T04:01:43;9.50;88.20
73576;DHT22;61859;49.204;8.140;2024-01-25T04:04:09;9.60;88.00
73576;DHT22;61859;49.204;8.140;2024-01-25T04:06:43;9.40;88.30
73576;DHT22;61859;49.204;8.140;2024-01-25T04:09:09;9.40;88.20
73576;DHT22;61859;49.204;8.140;2024-01-25T04:11:36;9.40;88.00
73576;DHT22;61859;49.204;8.140;2024-01-25T04:14:02;9.40;88.20
73576;DHT22;61859;49.204;8.140;2024-01-25T04:16:27;9.30;88.40
73576;DHT22;61859;49.204;8.140;2024-01-25T04:18:53;9.20;87.80
73576;DHT22;61859;49.204;8.140;2024-01-25T04:21:19;9.20;88.00
73576;DHT22;61859;49.204;8.140;2024-01-25T04:23:44;9.10;87.80
73576;DHT22;61859;49.204;8.140;2024-01-25T04:26:10;9.10;87.80
73576;DHT22;61859;49.204;8.140;2024-01-25T04:28:35;9.00;88.00
73576;DHT22;61859;49.204;8.140;2024-01-25T04:31:02;8.90;88.30
73576;DHT22;61859;49.204;8.140;2024-01-25T04:33:29;8.80;88.40
73576;DHT22;61859;49.204;8.140;2024-01-25T04:35:54;8.70;88.70
73576;DHT22;61859;49.204;8.140;2024-01-25T04:38:21;8.60;88.80
73576;DHT22;61859;49.204;8.140;2024-01-25T04:40:47;8.60;89.00
73576;DHT22;61859;49.204;8.140;2024-01-25T04:43:12;8.50;89.40
73576;DHT22;61859;49.204;8.140;2024-01-25T04:45:39;8.50;89.40
73576;DHT22;61859;49.204;8.140;2024-01-25T04:48:05;8.30;89.70
73576;DHT22;61859;49.204;8.140;2024-01-25T04:50:31;8.30;90.40
73576;DHT22;61859;49.204;8.140;2024-01-25T04:52:56;8.30;90.70
73576;DHT22;61859;49.204;8.140;2024-01-25T04:55:22;8.20;90.80
73576;DHT22;61859;49.204;8.140;2024-01-25T04:57:47;8.10;91.00
73576;DHT22;61859;49.204;8.140;2024-01-25T05:00:15;8.10;91.20
73576;DHT22;61859;49.204;8.140;2024-01-25T05:02:42;8.00;91.40
73576;DHT22;61859;49.204;8.140;2024-01-25T05:05:07;7.80;91.90
73576;DHT22;61859;49.204;8.140;2024-01-25T05:07:33;7.80;91.80
73576;DHT22;61859;49.204;8.140;2024-01-25T05:09:58;7.70;92.10
73576;DHT22;61859;49.204;8.140;2024-01-25T05:12:24;7.80;92.70
73576;DHT22;61859;49.204;8.140;2024-01-25T05:14:49;7.60;92.90
73576;DHT22;61859;49.204;8.140;2024-01-25T05:17:15;7.60;93.10
73576;DHT22;61859;49.204;8.140;2024-01-25T05:19:40;7.80;93.10
73576;DHT22;61859;49.204;8.140;2024-01-25T05:22:06;7.70;93.30
73576;DHT22;61859;49.204;8.140;2024-01-25T05:24:33;7.70;93.30
73576;DHT22;61859;49.204;8.140;2024-01-25T05:26:59;7.70;93.40
73576;DHT22;61859;49.204;8.140;2024-01-25T05:29:24;7.60;93.60
73576;DHT22;61859;49.204;8.140;2024-01-25T05:31:50;7.50;94.00
73576;DHT22;61859;49.204;8.140;2024-01-25T05:34:15;7.60;94.10
73576;DHT22;61859;49.204;8.140;2024-01-25T05:36:41;7.50;94.10
73576;DHT22;61859;49.204;8.140;2024-01-25T05:39:07;7.40;94.20
73576;DHT22;61859;49.204;8.140;2024-01-25T05:41:33;7.40;94.30
73576;DHT22;61859;49.204;8.140;2024-01-25T05:43:59;7.40;94.50
73576;DHT22;61859;49.204;8.140;2024-01-25T05:46:25;7.30;94.60
73576;DHT22;61859;49.204;8.140;2024-01-25T05:48:50;7.30;94.70
73576;DHT22;61859;49.204;8.140;2024-01-25T05:51:16;7.20;94.90
73576;DHT22;61859;49.204;8.140;2024-01-25T05:53:41;7.20;95.00
73576;DHT22;61859;49.204;8.140;2024-01-25T05:56:07;7.20;95.10
73576;DHT22;61859;49.204;8.140;2024-01-25T05:58:33;7.20;94.80
73576;DHT22;61859;49.204;8.140;2024-01-25T06:00:58;7.10;94.90
73576;DHT22;61859;49.204;8.140;2024-01-25T06:03:24;7.10;95.00
73576;DHT22;61859;49.204;8.140;2024-01-25T06:05:49;7.00;95.60
73576;DHT22;61859;49.204;8.140;2024-01-25T06:08:15;6.90;95.80
73576;DHT22;61859;49.204;8.140;2024-01-25T06:10:41;6.80;96.20
73576;DHT22;61859;49.204;8.140;2024-01-25T06:13:06;6.70;96.40
73576;DHT22;61859;49.204;8.140;2024-01-25T06:15:32;6.90;96.70
73576;DHT22;61859;49.204;8.140;2024-01-25T06:17:57;7.00;96.60
73576;DHT22;61859;49.204;8.140;2024-01-25T06:20:23;7.00;96.60
73576;DHT22;61859;49.204;8.140;2024-01-25T06:22:48;7.10;96.30
73576;DHT22;61859;49.204;8.140;2024-01-25T06:25:14;7.10;95.80
73576;DHT22;61859;49.204;8.140;2024-01-25T06:27:40;7.10;95.90
73576;DHT22;61859;49.204;8.140;2024-01-25T06:30:06;6.80;96.30
73576;DHT22;61859;49.204;8.140;2024-01-25T06:32:31;6.80;96.90
73576;DHT22;61859;49.204;8.140;2024-01-25T06:34:57;6.90;96.90
73576;DHT22;61859;49.204;8.140;2024-01-25T06:37:22;6.80;97.20
73576;DHT22;61859;49.204;8.140;2024-01-25T06:39:48;6.70;97.10
73576;DHT22;61859;49.204;8.140;2024-01-25T06:42:13;6.70;97.20
73576;DHT22;61859;49.204;8.140;2024-01-25T06:44:39;6.70;97.00
73576;DHT22;61859;49.204;8.140;2024-01-25T06:47:05;6.30;97.30
73576;DHT22;61859;49.204;8.140;2024-01-25T06:49:31;6.50;97.40
73576;DHT22;61859;49.204;8.140;2024-01-25T06:51:56;6.40;98.10
73576;DHT22;61859;49.204;8.140;2024-01-25T06:54:22;6.50;98.10
73576;DHT22;61859;49.204;8.140;2024-01-25T06:56:47;6.40;98.50
73576;DHT22;61859;49.204;8.140;2024-01-25T06:59:13;6.60;98.20
73576;DHT22;61859;49.204;8.140;2024-01-25T07:01:39;6.50;97.80
73576;DHT22;61859;49.204;8.140;2024-01-25T07:04:04;6.50;97.80
73576;DHT22;61859;49.204;8.140;2024-01-25T07:06:30;6.50;98.10
73576;DHT22;61859;49.204;8.140;2024-01-25T07:08:55;6.70;98.00
73576;DHT22;61859;49.204;8.140;2024-01-25T07:11:21;6.80;97.60
73576;DHT22;61859;49.204;8.140;2024-01-25T07:13:47;6.80;97.20
73576;DHT22;61859;49.204;8.140;2024-01-25T07:16:12;6.80;97.10
73576;DHT22;61859;49.204;8.140;2024-01-25T07:18:38;6.70;97.10
73576;DHT22;61859;49.204;8.140;2024-01-25T07:21:03;6.80;97.30
73576;DHT22;61859;49.204;8.140;2024-01-25T07:23:30;6.60;97.20
73576;DHT22;61859;49.204;8.140;2024-01-25T07:25:55;6.70;97.60
73576;DHT22;61859;49.204;8.140;2024-01-25T07:28:21;6.80;97.60
73576;DHT22;61859;49.204;8.140;2024-01-25T07:30:47;6.80;97.80
73576;DHT22;61859;49.204;8.140;2024-01-25T07:33:13;6.90;97.60
73576;DHT22;61859;49.204;8.140;2024-01-25T07:35:39;6.70;97.60
73576;DHT22;61859;49.204;8.140;2024-01-25T07:38:11;6.80;97.60
73576;DHT22;61859;49.204;8.140;2024-01-25T07:40:36;6.70;97.60
73576;DHT22;61859;49.204;8.140;2024-01-25T07:43:02;7.00;97.60
73576;DHT22;61859;49.204;8.140;2024-01-25T07:45:28;7.00;97.50
73576;DHT22;61859;49.204;8.140;2024-01-25T07:47:54;7.10;97.30
73576;DHT22;61859;49.204;8.140;2024-01-25T07:50:19;7.10;96.80
73576;DHT22;61859;49.204;8.140;2024-01-25T07:52:45;7.10;96.60
73576;DHT22;61859;49.204;8.140;2024-01-25T07:55:10;7.20;96.50
73576;DHT22;61859;49.204;8.140;2024-01-25T07:57:36;7.00;96.40
73576;DHT22;61859;49.204;8.140;2024-01-25T08:00:02;7.20;96.40
73576;DHT22;61859;49.204;8.140;2024-01-25T08:02:27;7.30;95.90
73576;DHT22;61859;49.204;8.140;2024-01-25T08:04:54;7.30;96.00
73576;DHT22;61859;49.204;8.140;2024-01-25T08:07:21;7.40;95.70
73576;DHT22;61859;49.204;8.140;2024-01-25T08:09:46;7.60;95.20
73576;DHT22;61859;49.204;8.140;2024-01-25T08:12:12;7.80;94.50
73576;DHT22;61859;49.204;8.140;2024-01-25T08:14:38;7.80;93.40
73576;DHT22;61859;49.204;8.140;2024-01-25T08:17:03;7.70;93.50
73576;DHT22;61859;49.204;8.140;2024-01-25T08:19:29;7.50;94.00
73576;DHT22;61859;49.204;8.140;2024-01-25T08:21:54;7.30;94.40
73576;DHT22;61859;49.204;8.140;2024-01-25T08:24:20;7.20;95.10
73576;DHT22;61859;49.204;8.140;2024-01-25T08:26:45;7.10;96.40
73576;DHT22;61859;49.204;8.140;2024-01-25T08:29:11;7.20;96.90
73576;DHT22;61859;49.204;8.140;2024-01-25T08:31:36;7.40;96.60
73576;DHT22;61859;49.204;8.140;2024-01-25T08:34:02;7.50;96.30
73576;DHT22;61859;49.204;8.140;2024-01-25T08:36:27;7.60;96.40
73576;DHT22;61859;49.204;8.140;2024-01-25T08:38:53;7.80;96.30
73576;DHT22;61859;49.204;8.140;2024-01-25T08:41:18;7.90;96.10
73576;DHT22;61859;49.204;8.140;2024-01-25T08:43:44;8.30;95.80
73576;DHT22;61859;49.204;8.140;2024-01-25T08:46:12;8.40;95.10
73576;DHT22;61859;49.204;8.140;2024-01-25T08:48:39;8.50;94.50
73576;DHT22;61859;49.204;8.140;2024-01-25T08:51:04;8.60;93.90
73576;DHT22;61859;49.204;8.140;2024-01-25T08:53:30;8.60;93.60
73576;DHT22;61859;49.204;8.140;2024-01-25T08:55:55;8.60;93.30
73576;DHT22;61859;49.204;8.140;2024-01-25T08:58:22;8.70;93.40
73576;DHT22;61859;49.204;8.140;2024-01-25T09:00:47;8.70;93.10
73576;DHT22;61859;49.204;8.140;2024-01-25T09:03:14;8.70;93.00
73576;DHT22;61859;49.204;8.140;2024-01-25T09:05:40;8.70;92.90
73576;DHT22;61859;49.204;8.140;2024-01-25T09:08:13;8.70;92.90
73576;DHT22;61859;49.204;8.140;2024-01-25T09:10:41;8.80;93.10
73576;DHT22;61859;49.204;8.140;2024-01-25T09:13:08;8.70;93.20
73576;DHT22;61859;49.204;8.140;2024-01-25T09:15:33;8.90;92.90
73576;DHT22;61859;49.204;8.140;2024-01-25T09:17:59;8.90;92.50
73576;DHT22;61859;49.204;8.140;2024-01-25T09:20:24;9.00;92.50
73576;DHT22;61859;49.204;8.140;2024-01-25T09:22:51;9.10;92.30
73576;DHT22;61859;49.204;8.140;2024-01-25T09:25:16;9.10;92.10
73576;DHT22;61859;49.204;8.140;2024-01-25T09:27:42;9.10;91.60
73576;DHT22;61859;49.204;8.140;2024-01-25T09:30:08;9.00;92.00
73576;DHT22;61859;49.204;8.140;2024-01-25T09:32:33;9.10;92.00
73576;DHT22;61859;49.204;8.140;2024-01-25T09:34:59;9.20;92.20
73576;DHT22;61859;49.204;8.140;2024-01-25T09:37:25;9.20;92.30
73576;DHT22;61859;49.204;8.140;2024-01-25T09:39:50;9.40;92.00
73576;DHT22;61859;49.204;8.140;2024-01-25T09:42:17;9.50;91.80
73576;DHT22;61859;49.204;8.140;2024-01-25T09:44:43;9.70;91.50
73576;DHT22;61859;49.204;8.140;2024-01-25T09:47:09;9.80;90.80
73576;DHT22;61859;49.204;8.140;2024-01-25T09:49:35;9.80;90.10
73576;DHT22;61859;49.204;8.140;2024-01-25T09:52:05;10.00;89.90
73576;DHT22;61859;49.204;8.140;2024-01-25T09:54:34;10.10;89.60
73576;DHT22;61859;49.204;8.140;2024-01-25T09:57:01;10.10;89.20
73576;DHT22;61859;49.204;8.140;2024-01-25T09:59:28;10.20;88.70
73576;DHT22;61859;49.204;8.140;2024-01-25T10:01:54;10.30;88.60
73576;DHT22;61859;49.204;8.140;2024-01-25T10:04:20;10.40;88.30
73576;DHT22;61859;49.204;8.140;2024-01-25T10:06:48;10.80;87.70
73576;DHT22;61859;49.204;8.140;2024-01-25T10:09:14;11.10;86.10
73576;DHT22;61859;49.204;8.140;2024-01-25T10:11:40;11.50;85.10
73576;DHT22;61859;49.204;8.140;2024-01-25T10:14:06;11.90;84.30
73576;DHT22;61859;49.204;8.140;2024-01-25T10:16:33;12.40;83.20
73576;DHT22;61859;49.204;8.140;2024-01-25T10:19:01;13.00;80.80
73576;DHT22;61859;49.204;8.140;2024-01-25T10:21:28;13.40;78.00
73576;DHT22;61859;49.204;8.140;2024-01-25T10:23:54;13.90;76.80
73576;DHT22;61859;49.204;8.140;2024-01-25T10:26:27;14.80;74.50
73576;DHT22;61859;49.204;8.140;2024-01-25T10:28:53;15.60;69.20
73576;DHT22;61859;49.204;8.140;2024-01-25T10:31:23;16.10;68.00
73576;DHT22;61859;49.204;8.140;2024-01-25T10:33:48;16.20;65.60
73576;DHT22;61859;49.204;8.140;2024-01-25T10:36:14;16.10;65.90
73576;DHT22;61859;49.204;8.140;2024-01-25T10:38:42;16.20;65.30
73576;DHT22;61859;49.204;8.140;2024-01-25T10:41:09;16.10;64.20
73576;DHT22;61859;49.204;8.140;2024-01-25T10:43:35;16.00;62.60
73576;DHT22;61859;49.204;8.140;2024-01-25T10:46:01;16.40;62.80
73576;DHT22;61859;49.204;8.140;2024-01-25T10:48:28;16.40;62.30
73576;DHT22;61859;49.204;8.140;2024-01-25T10:50:57;16.70;60.70
73576;DHT22;61859;49.204;8.140;2024-01-25T10:53:26;17.00;60.40
73576;DHT22;61859;49.204;8.140;2024-01-25T10:55:52;16.50;61.40
73576;DHT22;61859;49.204;8.140;2024-01-25T10:58:18;16.00;61.90
73576;DHT22;61859;49.204;8.140;2024-01-25T11:00:56;15.50;63.30
73576;DHT22;61859;49.204;8.140;2024-01-25T11:03:27;15.20;65.00
73576;DHT22;61859;49.204;8.140;2024-01-25T11:05:55;15.10;66.40
73576;DHT22;61859;49.204;8.140;2024-01-25T11:08:21;14.70;68.00
73576;DHT22;61859;49.204;8.140;2024-01-25T11:10:50;14.40;68.60
73576;DHT22;61859;49.204;8.140;2024-01-25T11:13:23;14.30;68.70
73576;DHT22;61859;49.204;8.140;2024-01-25T11:15:49;14.20;69.20
73576;DHT22;61859;49.204;8.140;2024-01-25T11:18:15;14.10;69.70
73576;DHT22;61859;49.204;8.140;2024-01-25T11:20:41;13.80;70.70
73576;DHT22;61859;49.204;8.140;2024-01-25T11:23:07;14.10;70.40
73576;DHT22;61859;49.204;8.140;2024-01-25T11:25:36;14.70;68.60
73576;DHT22;61859;49.204;8.140;2024-01-25T11:28:03;15.10;66.60
73576;DHT22;61859;49.204;8.140;2024-01-25T11:30:32;15.50;64.60
73576;DHT22;61859;49.204;8.140;2024-01-25T11:32:58;15.50;63.70
73576;DHT22;61859;49.204;8.140;2024-01-25T11:35:24;14.90;65.90
73576;DHT22;61859;49.204;8.140;2024-01-25T11:37:50;14.70;67.00
73576;DHT22;61859;49.204;8.140;2024-01-25T11:40:19;14.60;67.10
73576;DHT22;61859;49.204;8.140;2024-01-25T11:42:48;14.70;67.40
73576;DHT22;61859;49.204;8.140;2024-01-25T11:45:14;14.70;66.80
73576;DHT22;61859;49.204;8.140;2024-01-25T11:47:41;15.10;67.00
73576;DHT22;61859;49.204;8.140;2024-01-25T11:50:08;15.60;63.10
73576;DHT22;61859;49.204;8.140;2024-01-25T11:52:35;16.10;62.60
73576;DHT22;61859;49.204;8.140;2024-01-25T11:55:05;16.60;60.10
73576;DHT22;61859;49.204;8.140;2024-01-25T11:57:32;16.80;60.10
73576;DHT22;61859;49.204;8.140;2024-01-25T11:59:59;17.70;58.70
73576;DHT22;61859;49.204;8.140;2024-01-25T12:02:25;18.80;55.30
73576;DHT22;61859;49.204;8.140;2024-01-25T12:04:51;19.70;52.90
73576;DHT22;61859;49.204;8.140;2024-01-25T12:07:19;20.10;50.60
73576;DHT22;61859;49.204;8.140;2024-01-25T12:09:56;21.20;48.80
73576;DHT22;61859;49.204;8.140;2024-01-25T12:12:22;21.50;47.40
73576;DHT22;61859;49.204;8.140;2024-01-25T12:14:48;20.90;48.30
73576;DHT22;61859;49.204;8.140;2024-01-25T12:17:13;20.60;49.20
73576;DHT22;61859;49.204;8.140;2024-01-25T12:19:39;19.90;51.00
73576;DHT22;61859;49.204;8.140;2024-01-25T12:22:04;19.20;52.20
73576;DHT22;61859;49.204;8.140;2024-01-25T12:24:31;19.30;52.50
73576;DHT22;61859;49.204;8.140;2024-01-25T12:26:56;19.10;52.20
73576;DHT22;61859;49.204;8.140;2024-01-25T12:29:22;18.20;53.40
73576;DHT22;61859;49.204;8.140;2024-01-25T12:31:48;17.70;55.40
73576;DHT22;61859;49.204;8.140;2024-01-25T12:34:14;17.70;55.30
73576;DHT22;61859;49.204;8.140;2024-01-25T12:36:41;17.50;55.90
73576;DHT22;61859;49.204;8.140;2024-01-25T12:39:06;17.60;56.10
73576;DHT22;61859;49.204;8.140;2024-01-25T12:41:32;17.40;56.30
73576;DHT22;61859;49.204;8.140;2024-01-25T12:43:57;17.00;56.90
73576;DHT22;61859;49.204;8.140;2024-01-25T12:46:23;16.60;58.00
73576;DHT22;61859;49.204;8.140;2024-01-25T12:48:49;16.80;58.60
73576;DHT22;61859;49.204;8.140;2024-01-25T12:51:14;16.70;59.00
73576;DHT22;61859;49.204;8.140;2024-01-25T12:53:40;16.90;59.00
73576;DHT22;61859;49.204;8.140;2024-01-25T12:56:06;17.40;57.70
73576;DHT22;61859;49.204;8.140;2024-01-25T12:58:31;17.70;56.70
73576;DHT22;61859;49.204;8.140;2024-01-25T13:00:57;18.10;56.30
73576;DHT22;61859;49.204;8.140;2024-01-25T13:03:22;17.90;55.80
73576;DHT22;61859;49.204;8.140;2024-01-25T13:05:48;17.30;57.00
73576;DHT22;61859;49.204;8.140;2024-01-25T13:08:13;16.50;58.60
73576;DHT22;61859;49.204;8.140;2024-01-25T13:10:39;16.10;59.70
73576;DHT22;61859;49.204;8.140;2024-01-25T13:13:04;16.20;59.90
73576;DHT22;61859;49.204;8.140;2024-01-25T13:15:30;16.40;59.70
73576;DHT22;61859;49.204;8.140;2024-01-25T13:17:56;16.20;59.50
73576;DHT22;61859;49.204;8.140;2024-01-25T13:20:22;16.00;60.30
73576;DHT22;61859;49.204;8.140;2024-01-25T13:22:47;16.00;60.30
73576;DHT22;61859;49.204;8.140;2024-01-25T13:25:13;16.50;59.20
73576;DHT22;61859;49.204;8.140;2024-01-25T13:27:40;16.50;59.40
73576;DHT22;61859;49.204;8.140;2024-01-25T13:30:06;16.90;59.00
73576;DHT22;61859;49.204;8.140;2024-01-25T13:32:31;17.00;58.10
73576;DHT22;61859;49.204;8.140;2024-01-25T13:34:57;16.70;58.70
73576;DHT22;61859;49.204;8.140;2024-01-25T13:37:22;16.30;59.10
73576;DHT22;61859;49.204;8.140;2024-01-25T13:39:48;16.40;59.40
73576;DHT22;61859;49.204;8.140;2024-01-25T13:42:13;16.00;59.60
73576;DHT22;61859;49.204;8.140;2024-01-25T13:44:39;15.80;60.10
73576;DHT22;61859;49.204;8.140;2024-01-25T13:47:04;15.30;61.90
73576;DHT22;61859;49.204;8.140;2024-01-25T13:49:30;15.00;63.40
73576;DHT22;61859;49.204;8.140;2024-01-25T13:51:55;14.70;64.00
73576;DHT22;61859;49.204;8.140;2024-01-25T13:54:21;14.20;65.20
73576;DHT22;61859;49.204;8.140;2024-01-25T13:56:47;14.20;66.40
73576;DHT22;61859;49.204;8.140;2024-01-25T13:59:12;14.00;66.70
73576;DHT22;61859;49.204;8.140;2024-01-25T14:01:38;13.60;67.80
73576;DHT22;61859;49.204;8.140;2024-01-25T14:04:04;13.20;69.40
73576;DHT22;61859;49.204;8.140;2024-01-25T14:06:29;13.00;70.40
73576;DHT22;61859;49.204;8.140;2024-01-25T14:08:55;12.90;71.30
73576;DHT22;61859;49.204;8.140;2024-01-25T14:11:20;13.00;71.60
73576;DHT22;61859;49.204;8.140;2024-01-25T14:13:46;13.00;71.90
73576;DHT22;61859;49.204;8.140;2024-01-25T14:16:12;13.00;71.40
73576;DHT22;61859;49.204;8.140;2024-01-25T14:18:43;13.00;71.70
73576;DHT22;61859;49.204;8.140;2024-01-25T14:21:09;13.00;71.70
73576;DHT22;61859;49.204;8.140;2024-01-25T14:23:34;12.90;72.50
73576;DHT22;61859;49.204;8.140;2024-01-25T14:26:00;12.90;75.40
73576;DHT22;61859;49.204;8.140;2024-01-25T14:28:25;12.70;75.10
73576;DHT22;61859;49.204;8.140;2024-01-25T14:30:51;12.60;75.10
73576;DHT22;61859;49.204;8.140;2024-01-25T14:33:16;12.40;74.10
73576;DHT22;61859;49.204;8.140;2024-01-25T14:35:42;12.30;73.70
73576;DHT22;61859;49.204;8.140;2024-01-25T14:38:08;12.30;74.00
73576;DHT22;61859;49.204;8.140;2024-01-25T14:40:33;12.30;74.50
73576;DHT22;61859;49.204;8.140;2024-01-25T14:42:59;12.30;74.60
73576;DHT22;61859;49.204;8.140;2024-01-25T14:45:25;12.20;75.00
73576;DHT22;61859;49.204;8.140;2024-01-25T14:47:51;12.30;74.80
73576;DHT22;61859;49.204;8.140;2024-01-25T14:50:17;12.20;75.40
73576;DHT22;61859;49.204;8.140;2024-01-25T14:52:43;12.10;75.60
73576;DHT22;61859;49.204;8.140;2024-01-25T14:55:08;12.20;76.00
73576;DHT22;61859;49.204;8.140;2024-01-25T14:57:34;12.20;76.40
73576;DHT22;61859;49.204;8.140;2024-01-25T15:00:00;12.20;76.60
73576;DHT22;61859;49.204;8.140;2024-01-25T15:02:26;12.40;76.40
73576;DHT22;61859;49.204;8.140;2024-01-25T15:04:51;12.30;76.30
73576;DHT22;61859;49.204;8.140;2024-01-25T15:07:17;12.30;76.40
73576;DHT22;61859;49.204;8.140;2024-01-25T15:09:47;12.40;77.10
73576;DHT22;61859;49.204;8.140;2024-01-25T15:12:13;12.20;76.90
73576;DHT22;61859;49.204;8.140;2024-01-25T15:14:39;12.30;77.00
73576;DHT22;61859;49.204;8.140;2024-01-25T15:17:04;12.10;77.00
73576;DHT22;61859;49.204;8.140;2024-01-25T15:19:30;11.80;77.90
73576;DHT22;61859;49.204;8.140;2024-01-25T15:21:55;11.60;78.80
73576;DHT22;61859;49.204;8.140;2024-01-25T15:24:21;11.60;79.30
73576;DHT22;61859;49.204;8.140;2024-01-25T15:26:46;11.60;79.70
73576;DHT22;61859;49.204;8.140;2024-01-25T15:29:12;11.50;80.40